createdAt,value
2018-12-31T00:00:41.866Z,23.30
2018-12-31T00:01:41.889Z,23.00
2018-12-31T00:02:41.894Z,23.10
2018-12-31T00:03:41.914Z,22.70
2018-12-31T00:04:41.935Z,23.60
2018-12-31T00:05:41.938Z,22.40
2018-12-31T00:06:41.956Z,23.10
2018-12-31T00:07:41.970Z,22.70
2018-12-31T00:08:41.984Z,23.00
2018-12-31T00:09:41.996Z,22.90
2018-12-31T00:10:42.017Z,23.00
2018-12-31T00:11:42.028Z,22.30
2018-12-31T00:12:42.042Z,22.60
2018-12-31T00:13:42.054Z,22.80
2018-12-31T00:14:42.070Z,22.80
2018-12-31T00:15:42.089Z,22.90
2018-12-31T00:16:42.101Z,22.80
2018-12-31T00:17:42.112Z,22.40
2018-12-31T00:18:42.141Z,22.90
2018-12-31T00:19:42.152Z,22.10
2018-12-31T00:20:42.158Z,23.00
2018-12-31T00:21:42.164Z,22.80
2018-12-31T00:22:42.179Z,22.70
2018-12-31T00:23:42.197Z,23.30
2018-12-31T00:24:42.216Z,23.40
2018-12-31T00:25:42.226Z,23.30
2018-12-31T00:26:42.242Z,23.20
2018-12-31T00:27:42.259Z,23.90
2018-12-31T00:28:42.267Z,23.90
2018-12-31T00:29:42.285Z,24.50
2018-12-31T00:30:42.300Z,23.80
2018-12-31T00:31:42.310Z,23.60
2018-12-31T00:32:42.324Z,24.30
2018-12-31T00:33:42.338Z,24.40
2018-12-31T00:34:42.355Z,23.30
2018-12-31T00:35:42.367Z,23.20
2018-12-31T00:36:42.383Z,24.00
2018-12-31T00:37:42.401Z,23.30
2018-12-31T00:38:42.410Z,23.80
2018-12-31T00:39:42.428Z,23.80
2018-12-31T00:40:42.442Z,23.90
2018-12-31T00:41:42.453Z,24.10
2018-12-31T00:42:42.469Z,23.90
2018-12-31T00:43:42.500Z,23.90
2018-12-31T00:44:42.502Z,23.10
2018-12-31T00:45:42.514Z,22.60
2018-12-31T00:46:42.526Z,22.10
2018-12-31T00:47:42.547Z,21.90
2018-12-31T00:48:42.553Z,21.90
2018-12-31T00:49:42.570Z,22.00
2018-12-31T00:50:42.592Z,21.60
2018-12-31T00:51:42.599Z,21.40
2018-12-31T00:52:42.615Z,20.60
2018-12-31T00:53:42.637Z,20.30
2018-12-31T00:54:42.651Z,20.50
2018-12-31T00:55:42.654Z,20.30
2018-12-31T00:56:42.673Z,20.10
2018-12-31T00:57:42.688Z,20.60
2018-12-31T00:58:42.703Z,19.60
2018-12-31T00:59:42.716Z,19.20
2018-12-31T01:00:42.734Z,19.20
2018-12-31T01:01:42.743Z,19.90
2018-12-31T01:02:42.759Z,18.80
2018-12-31T01:03:42.774Z,19.10
2018-12-31T01:04:42.787Z,18.40
2018-12-31T01:05:42.808Z,18.50
2018-12-31T01:06:42.814Z,18.20
2018-12-31T01:07:42.835Z,18.30
2018-12-31T01:08:42.844Z,18.10
2018-12-31T01:09:42.867Z,18.80
2018-12-31T01:10:42.873Z,17.90
2018-12-31T01:11:42.892Z,17.60
2018-12-31T01:12:42.903Z,17.20
2018-12-31T01:13:42.918Z,17.70
2018-12-31T01:14:42.930Z,17.70
2018-12-31T01:15:42.956Z,17.70
2018-12-31T01:16:42.959Z,17.30
2018-12-31T01:17:42.974Z,16.20
2018-12-31T01:18:42.993Z,17.50
2018-12-31T01:19:43.020Z,17.10
2018-12-31T01:20:43.019Z,17.40
2018-12-31T01:21:43.033Z,16.80
2018-12-31T01:22:43.054Z,17.50
2018-12-31T01:23:43.076Z,16.50
2018-12-31T01:24:43.078Z,16.10
2018-12-31T01:25:43.285Z,16.60
2018-12-31T01:26:43.104Z,16.70
2018-12-31T01:27:43.123Z,17.00
2018-12-31T01:28:43.141Z,16.90
2018-12-31T01:29:43.157Z,17.00
2018-12-31T01:30:43.163Z,16.80
2018-12-31T01:31:43.184Z,15.90
2018-12-31T01:32:43.196Z,16.80
2018-12-31T01:33:43.207Z,16.30
2018-12-31T01:34:43.222Z,15.70
2018-12-31T01:35:43.238Z,16.80
2018-12-31T01:36:43.251Z,16.80
2018-12-31T01:37:43.276Z,15.80
2018-12-31T01:38:43.284Z,16.50
2018-12-31T01:39:43.295Z,16.50
2018-12-31T01:40:43.312Z,16.30
2018-12-31T01:41:43.345Z,16.50
2018-12-31T01:42:43.336Z,17.00
2018-12-31T01:43:43.363Z,16.60
2018-12-31T01:44:43.367Z,15.40
2018-12-31T01:45:43.378Z,15.60
2018-12-31T01:46:43.400Z,16.40
2018-12-31T01:47:43.415Z,17.00
2018-12-31T01:48:43.428Z,17.00
2018-12-31T01:49:43.446Z,16.50
2018-12-31T01:50:43.454Z,16.50
2018-12-31T01:51:43.477Z,16.10
2018-12-31T01:52:43.486Z,16.10
2018-12-31T01:53:43.498Z,16.70
2018-12-31T01:54:43.515Z,17.00
2018-12-31T01:55:43.530Z,16.10
2018-12-31T01:56:43.544Z,16.00
2018-12-31T01:57:43.564Z,16.50
2018-12-31T01:58:43.571Z,16.60
2018-12-31T01:59:43.595Z,16.80
2018-12-31T02:00:43.599Z,16.60
2018-12-31T02:01:43.617Z,17.10
2018-12-31T02:02:43.629Z,17.30
2018-12-31T02:03:43.645Z,17.10
2018-12-31T02:04:43.656Z,17.40
2018-12-31T02:05:43.674Z,17.20
2018-12-31T02:06:43.689Z,17.80
2018-12-31T02:07:43.704Z,17.60
2018-12-31T02:08:43.720Z,17.40
2018-12-31T02:09:43.736Z,17.90
2018-12-31T02:10:43.753Z,17.20
2018-12-31T02:11:43.764Z,17.70
2018-12-31T02:12:43.774Z,17.70
2018-12-31T02:13:43.800Z,18.10
2018-12-31T02:14:43.801Z,17.60
2018-12-31T02:15:43.818Z,17.50
2018-12-31T02:16:43.834Z,17.10
2018-12-31T02:17:43.846Z,17.50
2018-12-31T02:18:45.574Z,17.30
2018-12-31T02:19:43.879Z,17.60
2018-12-31T02:20:43.897Z,17.80
2018-12-31T02:21:43.903Z,17.10
2018-12-31T02:22:43.920Z,17.50
2018-12-31T02:23:43.934Z,17.70
2018-12-31T02:24:43.954Z,17.70
2018-12-31T02:25:43.962Z,18.30
2018-12-31T02:26:43.977Z,18.00
2018-12-31T02:27:43.995Z,18.00
2018-12-31T02:28:44.004Z,17.80
2018-12-31T02:29:44.019Z,19.20
2018-12-31T02:30:44.041Z,18.70
2018-12-31T02:31:44.050Z,19.10
2018-12-31T02:32:44.078Z,20.60
2018-12-31T02:33:44.079Z,20.50
2018-12-31T02:34:44.094Z,21.00
2018-12-31T02:35:44.110Z,21.20
2018-12-31T02:36:44.124Z,22.00
2018-12-31T02:37:44.143Z,21.50
2018-12-31T02:38:44.150Z,22.30
2018-12-31T02:39:44.172Z,21.70
2018-12-31T02:40:44.188Z,21.20
2018-12-31T02:41:44.198Z,21.20
2018-12-31T02:42:44.210Z,21.60
2018-12-31T02:43:44.223Z,21.90
2018-12-31T02:44:44.238Z,21.50
2018-12-31T02:45:44.255Z,21.90
2018-12-31T02:46:44.267Z,22.00
2018-12-31T02:47:44.291Z,21.80
2018-12-31T02:48:44.297Z,21.90
2018-12-31T02:49:44.310Z,21.90
2018-12-31T02:50:44.338Z,21.40
2018-12-31T02:51:44.342Z,21.70
2018-12-31T02:52:44.360Z,21.40
2018-12-31T02:53:44.374Z,21.00
2018-12-31T02:54:44.387Z,21.80
2018-12-31T02:55:44.398Z,23.20
2018-12-31T02:56:44.413Z,22.20
2018-12-31T02:57:44.430Z,23.50
2018-12-31T02:58:44.443Z,22.30
2018-12-31T02:59:44.457Z,21.70
2018-12-31T03:00:44.478Z,21.40
2018-12-31T03:01:44.488Z,21.20
2018-12-31T03:02:44.502Z,21.00
2018-12-31T03:03:44.516Z,21.40
2018-12-31T03:04:44.536Z,20.90
2018-12-31T03:05:44.546Z,19.90
2018-12-31T03:06:44.611Z,22.40
2018-12-31T03:07:44.576Z,21.10
2018-12-31T03:08:44.594Z,21.20
2018-12-31T03:38:46.836Z,14.50
2018-12-31T03:39:46.820Z,20.10
2018-12-31T03:41:38.732Z,26.20
2018-12-31T03:42:38.730Z,26.30
2018-12-31T03:44:30.631Z,26.30
2018-12-31T03:45:30.638Z,25.00
2018-12-31T03:47:22.559Z,26.60
2018-12-31T03:48:22.544Z,25.60
2018-12-31T03:50:14.456Z,25.60
2018-12-31T03:51:14.466Z,24.80
2018-12-31T03:53:06.397Z,26.20
2018-12-31T03:54:06.385Z,25.60
2018-12-31T03:55:58.293Z,24.50
2018-12-31T03:56:58.297Z,24.50
2018-12-31T03:58:50.226Z,25.70
2018-12-31T03:59:50.212Z,24.80
2018-12-31T04:01:42.167Z,25.40
2018-12-31T04:02:42.126Z,24.40
2018-12-31T04:04:34.032Z,23.90
2018-12-31T04:05:34.036Z,25.10
2018-12-31T04:07:25.959Z,24.80
2018-12-31T04:08:25.956Z,25.70
2018-12-31T04:10:17.862Z,24.40
2018-12-31T04:11:17.863Z,24.90
2018-12-31T04:13:09.796Z,25.10
2018-12-31T04:14:09.776Z,23.80
2018-12-31T04:16:01.699Z,24.20
2018-12-31T04:17:01.705Z,24.10
2018-12-31T04:18:53.654Z,24.30
2018-12-31T04:19:53.637Z,24.20
2018-12-31T04:21:45.575Z,24.20
2018-12-31T04:22:45.560Z,23.20
2018-12-31T04:24:37.465Z,23.30
2018-12-31T04:25:37.471Z,23.80
2018-12-31T04:27:29.402Z,24.00
2018-12-31T04:28:29.386Z,23.40
2018-12-31T04:30:21.306Z,23.90
2018-12-31T04:31:21.302Z,23.60
2018-12-31T04:33:13.241Z,24.40
2018-12-31T04:34:13.230Z,25.00
2018-12-31T04:36:05.153Z,24.30
2018-12-31T04:37:05.147Z,24.60
2018-12-31T04:38:57.067Z,24.90
2018-12-31T04:39:57.057Z,25.10
2018-12-31T04:41:48.967Z,25.90
2018-12-31T04:42:48.976Z,25.80
2018-12-31T04:44:40.919Z,24.90
2018-12-31T04:45:40.908Z,25.20
2018-12-31T04:47:32.833Z,24.90
2018-12-31T04:48:32.825Z,25.50
2018-12-31T04:50:24.732Z,25.20
2018-12-31T04:51:24.742Z,26.00
2018-12-31T04:53:16.673Z,26.30
2018-12-31T04:54:16.667Z,26.00
2018-12-31T04:56:09.077Z,26.00
2018-12-31T04:57:09.082Z,26.40
2018-12-31T04:59:01.004Z,26.10
2018-12-31T05:00:00.990Z,26.20
2018-12-31T05:01:52.907Z,26.10
2018-12-31T05:02:52.904Z,26.30
2018-12-31T05:04:44.839Z,25.90
2018-12-31T05:05:44.831Z,26.30
2018-12-31T05:07:36.752Z,27.20
2018-12-31T05:08:36.738Z,25.80
2018-12-31T05:10:28.646Z,27.00
2018-12-31T05:11:28.664Z,27.80
2018-12-31T05:13:20.587Z,26.50
2018-12-31T05:14:20.572Z,26.20
2018-12-31T05:16:12.483Z,26.00
2018-12-31T05:17:12.491Z,27.80
2018-12-31T05:19:04.425Z,27.10
2018-12-31T05:20:04.403Z,26.30
2018-12-31T05:21:56.317Z,26.10
2018-12-31T05:22:56.332Z,26.40
2018-12-31T05:24:48.291Z,26.70
2018-12-31T05:25:48.261Z,26.70
2018-12-31T05:27:40.170Z,26.30
2018-12-31T05:28:40.179Z,26.10
2018-12-31T05:30:32.103Z,27.80
2018-12-31T05:31:32.101Z,26.90
2018-12-31T05:33:24.028Z,28.90
2018-12-31T05:34:24.017Z,27.60
2018-12-31T05:36:15.926Z,28.10
2018-12-31T05:37:15.927Z,27.50
2018-12-31T05:39:07.860Z,27.50
2018-12-31T05:40:07.857Z,28.60
2018-12-31T05:41:59.762Z,27.30
2018-12-31T05:42:59.775Z,26.80
2018-12-31T05:44:51.718Z,27.80
2018-12-31T05:45:51.697Z,27.80
2018-12-31T05:47:43.616Z,28.10
2018-12-31T05:48:43.626Z,28.00
2018-12-31T05:50:35.547Z,27.20
2018-12-31T05:51:35.543Z,26.90
2018-12-31T05:53:27.468Z,27.40
2018-12-31T05:54:27.456Z,27.60
2018-12-31T05:56:19.372Z,27.20
2018-12-31T05:57:19.377Z,26.60
2018-12-31T05:59:11.313Z,27.00
2018-12-31T06:00:11.310Z,26.00
2018-12-31T06:02:03.606Z,26.80
2018-12-31T06:03:03.415Z,27.90
2018-12-31T06:04:55.652Z,26.90
2018-12-31T06:05:55.642Z,27.60
2018-12-31T06:07:47.554Z,27.20
2018-12-31T06:08:47.564Z,28.00
2018-12-31T06:10:39.506Z,26.70
2018-12-31T06:11:39.479Z,26.60
2018-12-31T06:13:31.400Z,27.40
2018-12-31T06:14:31.391Z,27.80
2018-12-31T06:16:23.332Z,26.80
2018-12-31T06:17:23.313Z,26.90
2018-12-31T06:19:15.247Z,27.90
2018-12-31T06:20:15.235Z,27.50
2018-12-31T06:22:07.634Z,27.70
2018-12-31T06:23:07.642Z,26.90
2018-12-31T06:24:59.578Z,27.10
2018-12-31T06:25:59.565Z,27.40
2018-12-31T06:27:51.493Z,27.00
2018-12-31T06:28:51.501Z,28.00
2018-12-31T06:30:43.427Z,26.80
2018-12-31T06:31:43.419Z,26.70
2018-12-31T06:33:35.329Z,27.30
2018-12-31T06:34:35.335Z,26.40
2018-12-31T06:36:27.276Z,28.00
2018-12-31T06:37:27.272Z,28.30
2018-12-31T06:39:19.200Z,27.30
2018-12-31T06:40:19.193Z,28.30
2018-12-31T06:42:11.106Z,28.50
2018-12-31T06:43:11.108Z,28.90
2018-12-31T06:45:03.037Z,29.80
2018-12-31T06:46:03.027Z,29.40
2018-12-31T06:47:54.956Z,29.60
2018-12-31T06:48:54.967Z,30.40
2018-12-31T06:50:46.913Z,29.50
2018-12-31T06:51:46.901Z,28.60
2018-12-31T06:53:38.816Z,30.30
2018-12-31T06:54:38.827Z,30.40
2018-12-31T06:56:30.755Z,28.90
2018-12-31T06:57:30.741Z,30.70
2018-12-31T06:59:22.721Z,29.80
2018-12-31T07:00:22.672Z,30.90
2018-12-31T07:02:14.611Z,29.30
2018-12-31T07:03:14.596Z,29.70
2018-12-31T07:05:06.530Z,30.40
2018-12-31T07:06:06.520Z,29.70
2018-12-31T07:07:58.922Z,29.90
2018-12-31T07:08:58.929Z,29.60
2018-12-31T07:10:50.865Z,30.60
2018-12-31T07:11:50.858Z,30.70
2018-12-31T07:13:42.781Z,29.90
2018-12-31T07:14:42.776Z,30.30
2018-12-31T07:16:34.703Z,31.20
2018-12-31T07:17:34.695Z,29.00
2018-12-31T07:19:26.597Z,30.60
2018-12-31T07:20:26.606Z,30.40
2018-12-31T07:22:18.536Z,30.50
2018-12-31T07:23:18.522Z,30.00
2018-12-31T07:25:10.458Z,29.30
2018-12-31T07:26:10.441Z,29.70
2018-12-31T07:28:02.373Z,30.10
2018-12-31T07:29:02.377Z,30.00
2018-12-31T07:30:54.308Z,29.70
2018-12-31T07:31:54.296Z,31.50
2018-12-31T07:33:46.216Z,30.70
2018-12-31T07:34:46.230Z,28.90
2018-12-31T07:36:38.153Z,30.80
2018-12-31T07:37:38.149Z,30.70
2018-12-31T07:39:30.061Z,30.90
2018-12-31T07:40:30.067Z,29.40
2018-12-31T07:42:22.004Z,30.40
2018-12-31T07:43:21.989Z,30.60
2018-12-31T07:45:13.921Z,30.30
2018-12-31T07:46:13.928Z,30.00
2018-12-31T07:48:05.858Z,29.30
2018-12-31T07:49:05.844Z,29.40
2018-12-31T07:50:57.775Z,29.90
2018-12-31T07:51:57.763Z,28.70
2018-12-31T07:53:49.672Z,29.60
2018-12-31T07:54:49.681Z,29.70
2018-12-31T07:56:41.623Z,30.20
2018-12-31T07:57:42.215Z,29.90
2018-12-31T07:59:33.503Z,29.80
2018-12-31T08:00:33.514Z,28.80
2018-12-31T08:02:25.440Z,29.40
2018-12-31T08:03:25.434Z,30.10
2018-12-31T08:05:17.341Z,29.10
2018-12-31T08:06:17.351Z,30.30
2018-12-31T08:08:09.274Z,29.80
2018-12-31T08:09:09.265Z,29.20
2018-12-31T08:11:01.205Z,29.50
2018-12-31T08:12:01.196Z,29.60
2018-12-31T08:13:53.125Z,30.10
2018-12-31T08:14:53.131Z,30.20
2018-12-31T08:16:45.081Z,30.20
2018-12-31T08:17:45.070Z,29.00
2018-12-31T08:19:36.979Z,29.20
2018-12-31T08:20:36.986Z,29.10
2018-12-31T08:22:28.922Z,29.50
2018-12-31T08:23:28.910Z,29.00
2018-12-31T08:25:20.823Z,29.10
2018-12-31T08:26:20.820Z,29.50
2018-12-31T08:28:12.780Z,29.50
2018-12-31T08:29:12.773Z,30.60
2018-12-31T08:31:04.679Z,29.60
2018-12-31T08:32:04.684Z,28.50
2018-12-31T08:33:56.629Z,29.20
2018-12-31T08:34:56.617Z,29.20
2018-12-31T08:36:48.550Z,29.70
2018-12-31T08:37:48.532Z,29.80
2018-12-31T08:39:40.445Z,28.60
2018-12-31T08:40:40.454Z,29.60
2018-12-31T08:42:32.382Z,30.50
2018-12-31T08:43:32.374Z,28.90
2018-12-31T08:45:24.280Z,29.60
2018-12-31T08:46:24.285Z,28.80
2018-12-31T08:48:16.218Z,29.10
2018-12-31T08:49:16.201Z,29.00
2018-12-31T08:51:08.140Z,28.00
2018-12-31T08:52:08.150Z,29.00
2018-12-31T08:54:00.120Z,28.30
2018-12-31T08:55:00.242Z,28.70
2018-12-31T08:56:52.502Z,27.90
2018-12-31T08:57:52.475Z,28.50
2018-12-31T08:59:44.388Z,27.60
2018-12-31T09:00:44.401Z,29.50
2018-12-31T09:02:36.322Z,29.00
2018-12-31T09:03:36.307Z,28.40
2018-12-31T09:05:28.226Z,27.70
2018-12-31T09:06:28.237Z,28.40
2018-12-31T09:08:20.161Z,27.60
2018-12-31T09:09:20.154Z,28.90
2018-12-31T09:11:12.070Z,28.10
2018-12-31T09:12:12.077Z,27.00
2018-12-31T09:14:04.004Z,29.30
2018-12-31T09:15:03.990Z,28.80
2018-12-31T09:16:56.399Z,28.60
2018-12-31T09:17:56.404Z,28.80
2018-12-31T09:19:48.332Z,28.60
2018-12-31T09:20:48.321Z,28.40
2018-12-31T09:22:40.252Z,28.50
2018-12-31T09:23:40.242Z,27.80
2018-12-31T09:25:32.164Z,28.40
2018-12-31T09:26:32.174Z,27.40
2018-12-31T09:28:24.108Z,28.00
2018-12-31T09:29:24.097Z,26.80
2018-12-31T09:31:16.495Z,27.00
2018-12-31T09:32:16.508Z,28.00
2018-12-31T09:34:08.443Z,28.90
2018-12-31T09:35:08.431Z,27.90
2018-12-31T09:37:00.351Z,26.70
2018-12-31T09:38:00.348Z,27.60
2018-12-31T09:39:52.276Z,27.80
2018-12-31T09:40:52.266Z,27.50
2018-12-31T09:42:44.197Z,27.40
2018-12-31T09:43:44.186Z,27.60
2018-12-31T09:45:36.108Z,27.50
2018-12-31T09:46:36.118Z,26.90
2018-12-31T09:48:28.051Z,26.90
2018-12-31T09:49:28.044Z,26.90
2018-12-31T09:51:19.958Z,27.80
2018-12-31T09:52:19.988Z,28.20
2018-12-31T09:54:11.899Z,26.50
2018-12-31T09:55:11.889Z,26.80
2018-12-31T09:57:03.797Z,28.10
2018-12-31T09:58:03.842Z,26.90
2018-12-31T09:59:55.743Z,27.40
2018-12-31T10:00:55.734Z,27.50
2018-12-31T10:02:47.674Z,27.10
2018-12-31T10:03:47.747Z,25.80
2018-12-31T10:05:39.601Z,26.50
2018-12-31T10:06:39.589Z,28.00
2018-12-31T10:08:32.012Z,28.10
2018-12-31T10:09:32.002Z,26.70
2018-12-31T10:11:23.923Z,26.40
2018-12-31T10:12:23.921Z,26.30
2018-12-31T10:14:15.852Z,25.90
2018-12-31T10:15:15.845Z,26.60
2018-12-31T10:17:07.748Z,27.00
2018-12-31T10:18:07.759Z,26.20
2018-12-31T10:19:59.708Z,27.50
2018-12-31T10:20:59.690Z,26.70
2018-12-31T10:22:51.596Z,26.60
2018-12-31T10:23:51.606Z,26.00
2018-12-31T10:25:43.538Z,26.90
2018-12-31T10:26:43.529Z,26.30
2018-12-31T10:28:35.456Z,26.10
2018-12-31T10:29:36.109Z,26.40
2018-12-31T10:31:27.361Z,27.10
2018-12-31T10:32:27.374Z,26.90
2018-12-31T10:34:19.302Z,26.90
2018-12-31T10:35:19.360Z,27.00
2018-12-31T10:37:11.201Z,27.50
2018-12-31T10:38:11.208Z,25.90
2018-12-31T10:40:03.148Z,27.70
2018-12-31T10:41:03.133Z,27.00
2018-12-31T10:42:55.047Z,26.30
2018-12-31T10:43:55.051Z,26.00
2018-12-31T10:45:47.007Z,26.10
2018-12-31T10:46:47.003Z,26.30
2018-12-31T10:48:38.933Z,25.80
2018-12-31T10:49:38.912Z,25.00
2018-12-31T10:51:30.828Z,25.90
2018-12-31T10:52:30.835Z,25.30
2018-12-31T10:54:22.773Z,25.60
2018-12-31T10:55:22.760Z,24.80
2018-12-31T10:57:14.679Z,25.20
2018-12-31T10:58:14.699Z,25.60
2018-12-31T11:00:06.635Z,25.40
2018-12-31T11:01:06.618Z,25.30
2018-12-31T11:02:58.540Z,25.70
2018-12-31T11:03:58.551Z,25.80
2018-12-31T11:05:50.500Z,26.00
2018-12-31T11:06:50.489Z,26.20
2018-12-31T11:07:50.504Z,25.50
2018-12-31T11:08:50.525Z,25.70
2018-12-31T11:09:50.533Z,25.90
2018-12-31T11:10:50.552Z,25.30
2018-12-31T11:11:50.565Z,25.90
2018-12-31T11:12:50.589Z,25.00
2018-12-31T11:13:50.592Z,24.10
2018-12-31T11:14:50.611Z,25.60
2018-12-31T11:15:50.628Z,25.20
2018-12-31T11:16:50.640Z,25.40
2018-12-31T11:17:50.655Z,25.20
2018-12-31T11:18:50.676Z,25.60
2018-12-31T11:19:50.688Z,25.70
2018-12-31T11:20:50.703Z,26.60
2018-12-31T11:21:50.740Z,26.40
2018-12-31T11:22:50.731Z,24.40
2018-12-31T11:23:50.745Z,25.40
2018-12-31T11:24:50.761Z,25.10
2018-12-31T11:25:50.773Z,26.30
2018-12-31T11:26:50.792Z,25.00
2018-12-31T11:27:50.806Z,25.30
2018-12-31T11:28:50.827Z,25.20
2018-12-31T11:29:50.838Z,25.20
2018-12-31T11:30:51.729Z,25.70
2018-12-31T11:31:50.876Z,25.70
2018-12-31T11:32:50.883Z,26.40
2018-12-31T11:33:50.898Z,25.40
2018-12-31T11:34:50.932Z,26.40
2018-12-31T11:35:50.933Z,24.80
2018-12-31T11:36:50.944Z,25.70
2018-12-31T11:37:50.955Z,26.70
2018-12-31T11:38:50.976Z,26.50
2018-12-31T11:39:50.985Z,25.60
2018-12-31T11:40:51.008Z,25.00
2018-12-31T11:41:51.020Z,24.30
2018-12-31T11:42:51.033Z,25.00
2018-12-31T11:43:51.048Z,24.60
2018-12-31T11:44:51.074Z,25.60
2018-12-31T11:45:51.078Z,24.90
2018-12-31T11:46:51.108Z,24.80
2018-12-31T11:47:51.111Z,24.90
2018-12-31T11:48:51.132Z,25.40
2018-12-31T11:49:51.142Z,24.90
2018-12-31T11:50:51.165Z,25.10
2018-12-31T11:51:51.170Z,24.80
2018-12-31T11:52:51.201Z,25.00
2018-12-31T11:53:51.210Z,25.10
2018-12-31T11:54:51.219Z,24.30
2018-12-31T11:55:51.237Z,24.80
2018-12-31T11:56:51.256Z,24.50
2018-12-31T11:57:51.265Z,25.20
2018-12-31T11:58:51.279Z,24.50
2018-12-31T11:59:51.617Z,25.10
2018-12-31T12:00:51.312Z,23.80
2018-12-31T12:01:51.324Z,24.10
2018-12-31T12:02:51.340Z,23.30
2018-12-31T12:03:51.355Z,23.60
2018-12-31T12:04:51.371Z,23.70
2018-12-31T12:05:51.392Z,23.90
2018-12-31T12:06:51.404Z,23.90
2018-12-31T12:07:51.415Z,25.00
2018-12-31T12:08:51.435Z,24.10
2018-12-31T12:09:51.453Z,23.60
2018-12-31T12:10:51.468Z,24.60
2018-12-31T12:11:51.486Z,24.00
2018-12-31T12:12:51.495Z,23.60
2018-12-31T12:13:51.512Z,25.00
2018-12-31T12:14:51.524Z,23.30
2018-12-31T12:15:51.546Z,23.30
2018-12-31T12:16:51.555Z,24.40
2018-12-31T12:17:51.568Z,24.10
2018-12-31T12:18:51.591Z,23.00
2018-12-31T12:19:51.603Z,23.70
2018-12-31T12:20:51.619Z,23.60
2018-12-31T12:21:51.642Z,23.80
2018-12-31T12:22:51.648Z,23.50
2018-12-31T12:23:51.665Z,23.70
2018-12-31T12:24:51.692Z,22.80
2018-12-31T12:25:51.700Z,23.30
2018-12-31T12:26:51.712Z,24.00
2018-12-31T12:27:51.727Z,23.50
2018-12-31T12:28:51.741Z,23.10
2018-12-31T12:29:51.758Z,22.60
2018-12-31T12:30:51.814Z,23.40
2018-12-31T12:31:51.790Z,23.00
2018-12-31T12:32:51.803Z,24.00
2018-12-31T12:33:51.822Z,23.10
2018-12-31T12:34:51.833Z,23.80
2018-12-31T12:35:51.852Z,22.30
2018-12-31T12:36:51.867Z,23.40
2018-12-31T12:37:51.898Z,23.10
2018-12-31T12:38:51.898Z,23.50
2018-12-31T12:39:51.909Z,23.80
2018-12-31T12:40:51.925Z,24.10
2018-12-31T12:41:51.945Z,24.20
2018-12-31T12:42:51.961Z,25.20
2018-12-31T12:43:51.978Z,25.10
2018-12-31T12:44:51.988Z,23.50
2018-12-31T12:45:52.004Z,24.20
2018-12-31T12:46:52.021Z,24.70
2018-12-31T12:47:52.052Z,25.70
2018-12-31T12:48:52.050Z,24.10
2018-12-31T12:49:52.079Z,24.00
2018-12-31T12:50:52.080Z,24.30
2018-12-31T12:51:52.095Z,24.10
2018-12-31T12:52:52.113Z,23.90
2018-12-31T12:53:52.127Z,24.50
2018-12-31T12:54:52.146Z,24.40
2018-12-31T12:55:52.161Z,22.90
2018-12-31T12:56:52.179Z,23.60
2018-12-31T12:57:52.189Z,22.90
2018-12-31T12:58:52.207Z,23.40
2018-12-31T12:59:52.217Z,23.50
2018-12-31T13:00:52.232Z,23.30
2018-12-31T13:01:52.256Z,24.00
2018-12-31T13:02:52.268Z,24.80
2018-12-31T13:03:52.283Z,25.50
2018-12-31T13:04:52.297Z,26.60
2018-12-31T13:05:52.316Z,25.40
2018-12-31T13:06:52.333Z,24.20
2018-12-31T13:07:52.343Z,24.60
2018-12-31T13:08:52.359Z,24.10
2018-12-31T13:09:52.374Z,23.10
2018-12-31T13:10:52.393Z,23.90
2018-12-31T13:11:52.404Z,25.00
2018-12-31T13:12:52.428Z,23.70
2018-12-31T13:13:52.440Z,24.20
2018-12-31T13:14:52.457Z,23.00
2018-12-31T13:15:52.470Z,23.10
2018-12-31T13:16:52.483Z,24.10
2018-12-31T13:17:52.501Z,23.80
2018-12-31T13:18:52.538Z,23.50
2018-12-31T13:19:52.529Z,23.10
2018-12-31T13:20:52.568Z,24.00
2018-12-31T13:21:52.561Z,23.70
2018-12-31T13:22:52.639Z,23.10
2018-12-31T13:23:52.590Z,22.80
2018-12-31T13:24:52.606Z,22.90
2018-12-31T13:25:52.625Z,22.70
2018-12-31T13:26:52.635Z,23.40
2018-12-31T13:27:52.661Z,22.70
2018-12-31T13:28:52.667Z,23.50
2018-12-31T13:29:52.684Z,24.30
2018-12-31T13:30:52.701Z,24.30
2018-12-31T13:31:52.718Z,23.70
2018-12-31T13:32:52.733Z,23.70
2018-12-31T13:33:52.747Z,24.80
2018-12-31T13:34:52.768Z,24.00
2018-12-31T13:35:52.778Z,25.00
2018-12-31T13:36:52.792Z,25.80
2018-12-31T13:37:52.807Z,26.60
2018-12-31T13:38:52.825Z,25.70
2018-12-31T13:39:52.842Z,25.80
2018-12-31T13:40:52.856Z,26.30
2018-12-31T13:41:52.882Z,26.40
2018-12-31T13:42:52.886Z,25.30
2018-12-31T13:43:52.903Z,25.80
2018-12-31T13:44:52.918Z,25.60
2018-12-31T13:45:52.935Z,26.50
2018-12-31T13:46:52.948Z,25.30
2018-12-31T13:47:52.967Z,25.50
2018-12-31T13:48:52.980Z,25.80
2018-12-31T13:49:52.996Z,26.00
2018-12-31T13:50:53.011Z,25.70
2018-12-31T13:51:53.025Z,24.60
2018-12-31T13:52:53.040Z,24.60
2018-12-31T13:53:53.059Z,25.80
2018-12-31T13:54:53.073Z,25.10
2018-12-31T13:55:53.099Z,25.20
2018-12-31T13:56:53.106Z,25.20
2018-12-31T13:57:53.117Z,25.90
2018-12-31T13:58:53.131Z,26.30
2018-12-31T13:59:53.150Z,25.40
2018-12-31T14:00:53.166Z,25.00
2018-12-31T14:01:53.181Z,24.30
2018-12-31T14:02:53.197Z,25.20
2018-12-31T14:03:53.214Z,24.40
2018-12-31T14:04:53.228Z,24.70
2018-12-31T14:05:53.245Z,24.30
2018-12-31T14:06:53.264Z,25.30
2018-12-31T14:07:53.272Z,24.10
2018-12-31T14:08:53.287Z,23.80
2018-12-31T14:09:53.305Z,24.20
2018-12-31T14:10:53.321Z,23.90
2018-12-31T14:11:53.339Z,24.00
2018-12-31T14:12:53.354Z,24.30
2018-12-31T14:13:53.372Z,23.20
2018-12-31T14:14:53.384Z,23.40
2018-12-31T14:15:53.396Z,23.10
2018-12-31T14:16:53.415Z,23.30
2018-12-31T14:17:53.427Z,23.60
2018-12-31T14:18:53.446Z,23.20
2018-12-31T14:19:53.464Z,24.10
2018-12-31T14:20:53.475Z,23.10
2018-12-31T14:21:53.491Z,23.10
2018-12-31T14:22:53.506Z,24.90
2018-12-31T14:23:53.524Z,22.80
2018-12-31T14:24:53.538Z,24.80
2018-12-31T14:25:53.554Z,23.70
2018-12-31T14:27:00.317Z,23.90
2018-12-31T14:27:53.595Z,23.90
2018-12-31T14:28:53.602Z,23.50
2018-12-31T14:29:53.615Z,25.00
2018-12-31T14:30:53.631Z,23.90
2018-12-31T14:31:53.646Z,24.00
2018-12-31T14:32:53.659Z,24.10
2018-12-31T14:33:53.677Z,24.60
2018-12-31T14:34:53.694Z,25.40
2018-12-31T14:35:53.713Z,25.60
2018-12-31T14:36:53.726Z,25.60
2018-12-31T14:37:53.742Z,25.20
2018-12-31T14:38:53.836Z,24.60
2018-12-31T14:39:53.772Z,24.00
2018-12-31T14:40:53.784Z,23.80
2018-12-31T14:41:53.803Z,24.30
2018-12-31T14:42:53.818Z,24.20
2018-12-31T14:43:53.829Z,25.40
2018-12-31T14:44:53.850Z,25.00
2018-12-31T14:45:53.865Z,24.80
2018-12-31T14:46:53.880Z,24.10
2018-12-31T14:47:53.895Z,24.10
2018-12-31T14:48:53.915Z,24.60
2018-12-31T14:49:53.926Z,24.00
2018-12-31T14:50:53.955Z,23.30
2018-12-31T14:51:53.961Z,25.40
2018-12-31T14:52:53.970Z,25.70
2018-12-31T14:53:53.992Z,25.10
2018-12-31T14:54:54.003Z,25.90
2018-12-31T14:55:54.019Z,25.10
2018-12-31T14:56:54.042Z,25.10
2018-12-31T14:57:54.050Z,24.20
2018-12-31T14:58:54.076Z,23.50
2018-12-31T14:59:54.095Z,24.20
2018-12-31T15:00:54.097Z,24.30
2018-12-31T15:01:54.112Z,24.30
2018-12-31T15:02:54.129Z,24.50
2018-12-31T15:03:54.144Z,23.70
2018-12-31T15:04:54.170Z,23.80
2018-12-31T15:05:54.176Z,23.00
2018-12-31T15:06:54.192Z,23.20
2018-12-31T15:07:54.200Z,23.90
2018-12-31T15:08:54.213Z,23.90
2018-12-31T15:09:54.238Z,24.00
2018-12-31T15:10:54.251Z,24.20
2018-12-31T15:11:54.265Z,23.20
2018-12-31T15:12:54.278Z,23.80
2018-12-31T15:13:54.297Z,23.20
2018-12-31T15:14:54.309Z,23.90
2018-12-31T15:15:54.323Z,23.60
2018-12-31T15:16:54.347Z,23.70
2018-12-31T15:17:54.364Z,23.40
2018-12-31T15:18:54.370Z,23.70
2018-12-31T15:19:54.387Z,23.70
2018-12-31T15:20:54.407Z,23.80
2018-12-31T15:21:54.421Z,24.00
2018-12-31T15:22:54.435Z,24.20
2018-12-31T15:23:54.453Z,23.30
2018-12-31T15:24:54.467Z,24.00
2018-12-31T15:25:54.480Z,23.70
2018-12-31T15:26:54.505Z,24.30
2018-12-31T15:27:54.507Z,22.90
2018-12-31T15:28:54.526Z,23.60
2018-12-31T15:29:54.539Z,24.10
2018-12-31T15:30:54.553Z,24.50
2018-12-31T15:31:54.571Z,25.10
2018-12-31T15:32:54.590Z,23.70
2018-12-31T15:33:54.603Z,23.80
2018-12-31T15:34:54.620Z,24.20
2018-12-31T15:35:54.634Z,24.40
2018-12-31T15:36:54.649Z,24.10